Time;durP1;ratioP1;P1;durP2;ratioP2;P2;SDS_P1;SDS_P2;PMS_P1;PMS_P2;Temp;Humidity;BMP_temperature;BMP_pressure;BME280_temperature;BME280_humidity;BME280_pressure;Samples;Min_cycle;Max_cycle;Signal;HPM_P1;HPM_P2
2020/12/22 00:00:32;;;;;;;37.37;18.70;;;1.90;99.90;0.00;97327.00;;;;6186413;23;20400;-84
2020/12/22 00:02:59;;;;;;;33.30;20.83;;;1.60;99.90;-0.10;97321.00;;;;6186401;23;20904;-84
2020/12/22 00:05:27;;;;;;;34.10;19.90;;;1.70;99.90;-0.10;97319.00;;;;6186681;23;20415;-85
2020/12/22 00:07:55;;;;;;;32.93;20.50;;;1.70;99.90;-0.10;97323.00;;;;6188777;23;20412;-87
2020/12/22 00:10:22;;;;;;;35.57;20.40;;;1.20;99.90;-0.10;97311.00;;;;6188337;23;20429;-88
2020/12/22 00:12:50;;;;;;;33.80;19.50;;;1.20;99.90;-0.10;97311.00;;;;6188084;23;20399;-86
2020/12/22 00:15:17;;;;;;;35.47;20.93;;;1.30;99.90;0.00;97309.00;;;;6188979;23;20411;-86
2020/12/22 00:17:45;;;;;;;29.27;18.97;;;2.10;99.90;-0.10;97307.00;;;;6187485;23;20463;-87
2020/12/22 00:20:14;;;;;;;31.50;18.50;;;1.20;99.90;-0.10;97307.00;;;;6188170;23;20777;-85
2020/12/22 00:22:45;;;;;;;34.87;18.50;;;1.20;99.90;0.00;97292.00;;;;6187749;23;20440;-85
2020/12/22 00:25:12;;;;;;;30.63;17.43;;;1.20;99.90;0.00;97296.00;;;;6187986;23;20516;-86
2020/12/22 00:27:40;;;;;;;30.97;17.43;;;1.20;99.90;0.00;97307.00;;;;6187951;23;20412;-85
2020/12/22 00:30:08;;;;;;;26.23;16.87;;;1.30;99.90;0.00;97297.00;;;;6188135;23;20927;-85
2020/12/22 00:32:35;;;;;;;29.10;16.87;;;1.20;99.90;0.00;97289.00;;;;6187681;23;20412;-88
2020/12/22 00:35:04;;;;;;;28.27;15.80;;;1.50;99.90;0.10;97304.00;;;;6188557;23;20436;-84
2020/12/22 00:37:31;;;;;;;27.47;15.37;;;1.20;99.90;0.10;97299.00;;;;6187907;23;20959;-84
2020/12/22 00:40:00;;;;;;;25.20;16.53;;;1.70;99.90;0.10;97284.00;;;;6187195;23;21010;-87
2020/12/22 00:42:30;;;;;;;26.57;16.20;;;1.30;99.90;0.10;97285.00;;;;6187596;23;20393;-84
2020/12/22 00:44:58;;;;;;;27.43;16.40;;;1.30;99.90;0.10;97285.00;;;;6187682;23;20737;-86
2020/12/22 00:47:26;;;;;;;29.07;16.73;;;1.30;99.90;0.10;97292.00;;;;6187587;23;20923;-86
2020/12/22 00:49:53;;;;;;;29.00;17.63;;;1.60;99.90;0.10;97276.00;;;;6187575;23;20439;-86
2020/12/22 00:52:20;;;;;;;31.60;16.97;;;1.30;99.90;0.10;97274.00;;;;6187700;23;20404;-85
2020/12/22 00:54:48;;;;;;;29.97;17.80;;;1.80;99.90;0.00;97277.00;;;;6187438;23;20412;-85
2020/12/22 00:57:17;;;;;;;27.30;17.03;;;1.30;99.90;0.00;97275.00;;;;6187181;23;20412;-85
2020/12/22 00:59:44;;;;;;;26.33;18.23;;;1.30;99.90;0.00;97283.00;;;;6187731;23;20661;-86
2020/12/22 01:02:12;;;;;;;27.50;16.87;;;1.20;99.90;0.00;97287.00;;;;6187013;23;20412;-85
2020/12/22 01:04:39;;;;;;;26.00;17.03;;;1.20;99.90;0.00;97278.00;;;;6187608;23;20405;-87
2020/12/22 01:07:07;;;;;;;25.80;15.80;;;2.50;99.90;-0.10;97281.00;;;;6187030;23;20404;-84
2020/12/22 01:09:34;;;;;;;27.63;17.17;;;1.20;99.90;-0.10;97285.00;;;;6187911;23;20429;-85
2020/12/22 01:12:02;;;;;;;24.97;16.73;;;1.20;99.90;-0.10;97278.00;;;;6187816;23;20397;-85
2020/12/22 01:14:30;;;;;;;27.67;16.23;;;1.20;99.90;-0.20;97265.00;;;;6187571;23;20408;-85
2020/12/22 01:16:57;;;;;;;26.30;17.07;;;1.10;99.90;-0.20;97266.00;;;;6186580;23;21032;-86
2020/12/22 01:19:25;;;;;;;24.23;14.90;;;1.20;99.90;-0.20;97268.00;;;;6187131;23;20459;-85
2020/12/22 01:21:53;;;;;;;26.47;14.30;;;1.10;99.90;-0.20;97261.00;;;;6187155;23;20409;-85
2020/12/22 01:24:21;;;;;;;27.73;15.17;;;1.10;99.90;-0.20;97269.00;;;;6187952;23;20417;-85
2020/12/22 01:26:49;;;;;;;24.97;13.93;;;1.10;99.90;-0.30;97264.00;;;;6187670;23;20412;-86
2020/12/22 01:29:16;;;;;;;22.67;14.97;;;1.00;99.90;-0.30;97268.00;;;;6187510;23;20432;-85
2020/12/22 01:31:47;;;;;;;21.87;13.37;;;1.00;99.90;-0.30;97259.00;;;;6186940;23;20766;-85
2020/12/22 01:34:15;;;;;;;21.10;13.73;;;1.00;99.90;-0.30;97253.00;;;;6187285;23;20420;-85
2020/12/22 01:36:43;;;;;;;21.70;13.37;;;1.00;99.90;-0.30;97264.00;;;;6187083;23;20409;-85
2020/12/22 01:39:10;;;;;;;18.07;12.03;;;1.00;99.90;-0.30;97266.00;;;;6187161;23;20482;-85
2020/12/22 01:41:38;;;;;;;17.30;11.37;;;1.10;99.90;-0.30;97257.00;;;;6186706;23;20396;-85
2020/12/22 01:44:08;;;;;;;19.57;12.97;;;0.90;99.90;-0.40;97259.00;;;;6187654;23;20601;-86
2020/12/22 01:46:38;;;;;;;22.93;14.67;;;0.90;99.90;-0.40;97266.00;;;;6187473;23;20405;-86
2020/12/22 01:49:14;;;;;;;21.73;11.90;;;0.90;99.90;-0.40;97277.00;;;;6186876;23;20429;-86
2020/12/22 01:51:43;;;;;;;19.40;12.67;;;1.40;99.90;-0.40;97278.00;;;;6187203;23;20395;-85
2020/12/22 01:54:10;;;;;;;18.50;11.83;;;0.90;99.90;-0.40;97267.00;;;;6187433;23;20404;-86
2020/12/22 01:56:38;;;;;;;17.90;10.60;;;0.90;99.90;-0.40;97266.00;;;;6187089;23;21180;-85
2020/12/22 01:59:06;;;;;;;14.57;10.87;;;0.90;99.90;-0.30;97266.00;;;;6187324;23;20467;-85
2020/12/22 02:01:35;;;;;;;21.13;11.67;;;1.50;99.90;-0.30;97268.00;;;;6187140;23;20404;-85
2020/12/22 02:04:06;;;;;;;15.27;11.13;;;0.90;99.90;-0.30;97255.00;;;;6187248;23;20393;-87
2020/12/22 02:06:35;;;;;;;15.67;11.13;;;0.90;99.90;-0.40;97249.00;;;;6186786;23;20804;-86
2020/12/22 02:09:05;;;;;;;16.60;10.67;;;0.90;99.90;-0.30;97252.00;;;;6187154;23;20483;-86
2020/12/22 02:11:35;;;;;;;14.67;11.57;;;0.90;99.90;-0.30;97257.00;;;;6186473;23;20865;-85
2020/12/22 02:14:04;;;;;;;14.03;10.23;;;0.90;99.90;-0.30;97242.00;;;;6187720;23;20408;-86
2020/12/22 02:16:32;;;;;;;15.37;9.77;;;0.90;99.90;-0.40;97249.00;;;;6186684;23;20401;-87
2020/12/22 02:19:00;;;;;;;13.67;9.23;;;0.90;99.90;-0.50;97253.00;;;;6187359;23;20452;-85
2020/12/22 02:21:28;;;;;;;14.17;9.90;;;0.90;99.90;-0.40;97248.00;;;;6186470;23;20420;-86
2020/12/22 02:23:56;;;;;;;12.50;8.73;;;1.30;99.90;-0.40;97236.00;;;;6187479;23;20397;-85
2020/12/22 02:26:25;;;;;;;12.70;9.17;;;0.80;99.90;-0.40;97221.00;;;;6186614;23;20419;-85
2020/12/22 02:28:54;;;;;;;10.63;8.53;;;1.30;99.90;-0.40;97227.00;;;;6186261;23;20437;-84
2020/12/22 02:31:25;;;;;;;10.90;8.80;;;0.90;99.90;-0.50;97231.00;;;;6185783;23;20393;-84
2020/12/22 02:33:53;;;;;;;15.03;8.97;;;0.80;99.90;-0.50;97230.00;;;;6187341;23;20393;-85
2020/12/22 02:36:21;;;;;;;13.23;8.83;;;0.80;99.90;-0.40;97218.00;;;;6187318;23;20421;-85
2020/12/22 02:38:49;;;;;;;13.27;9.70;;;0.80;99.90;-0.40;97216.00;;;;6186352;23;20459;-84
2020/12/22 02:41:17;;;;;;;14.53;8.47;;;0.80;99.90;-0.50;97214.00;;;;6186055;23;20432;-86
2020/12/22 02:43:44;;;;;;;12.80;9.40;;;0.80;99.90;-0.50;97207.00;;;;6187175;23;20412;-85
2020/12/22 02:46:12;;;;;;;16.17;10.00;;;0.80;99.90;-0.50;97213.00;;;;6186973;23;20409;-86
2020/12/22 02:48:39;;;;;;;12.33;10.57;;;2.10;99.90;-0.50;97217.00;;;;6187089;23;20424;-86
2020/12/22 02:51:07;;;;;;;12.97;9.27;;;0.80;99.90;-0.50;97210.00;;;;6186042;23;20915;-85
2020/12/22 02:53:34;;;;;;;13.03;9.37;;;0.80;99.90;-0.50;97209.00;;;;6187259;23;20783;-84
2020/12/22 02:56:02;;;;;;;14.53;10.07;;;0.80;99.90;-0.40;97209.00;;;;6186410;23;20400;-86
2020/12/22 02:58:30;;;;;;;17.23;10.20;;;0.80;99.90;-0.40;97207.00;;;;6186572;23;20449;-86
2020/12/22 03:00:57;;;;;;;11.23;9.10;;;0.80;99.90;-0.40;97207.00;;;;6187321;23;20912;-85
2020/12/22 03:03:25;;;;;;;13.17;9.43;;;1.80;99.90;-0.50;97221.00;;;;6187313;23;20421;-86
2020/12/22 03:05:52;;;;;;;13.90;9.47;;;0.80;99.90;-0.40;97206.00;;;;6187002;23;20444;-86
2020/12/22 03:08:20;;;;;;;12.30;9.13;;;0.80;99.90;-0.50;97217.00;;;;6186761;23;20494;-88
2020/12/22 03:10:47;;;;;;;12.17;8.57;;;0.80;99.90;-0.50;97202.00;;;;6187196;23;20400;-84
2020/12/22 03:13:15;;;;;;;12.17;8.20;;;0.80;99.90;-0.50;97208.00;;;;6187546;23;20404;-85
2020/12/22 03:15:43;;;;;;;11.20;8.90;;;0.80;99.90;-0.50;97211.00;;;;6187701;23;20397;-86
2020/12/22 03:18:10;;;;;;;13.90;8.77;;;0.80;99.90;-0.50;97210.00;;;;6187421;23;20423;-86
2020/12/22 03:20:38;;;;;;;15.10;8.93;;;0.80;99.90;-0.50;97196.00;;;;6188016;23;20926;-86
2020/12/22 03:23:05;;;;;;;10.80;8.53;;;1.70;99.90;-0.50;97201.00;;;;6187791;23;20396;-84
2020/12/22 03:25:33;;;;;;;13.60;7.30;;;0.80;99.90;-0.50;97196.00;;;;6187403;23;20415;-86
2020/12/22 03:28:00;;;;;;;13.03;8.33;;;2.80;99.90;-0.50;97198.00;;;;6187024;23;20404;-86
2020/12/22 03:30:28;;;;;;;11.93;8.03;;;0.80;99.90;-0.50;97190.00;;;;6186818;23;20488;-84
2020/12/22 03:32:56;;;;;;;8.43;7.37;;;0.80;99.90;-0.50;97190.00;;;;6187606;23;20412;-84
2020/12/22 03:35:23;;;;;;;11.57;8.80;;;0.80;99.90;-0.50;97190.00;;;;6186181;23;20398;-85
2020/12/22 03:37:51;;;;;;;14.30;8.83;;;0.80;99.90;-0.50;97191.00;;;;6185180;23;20919;-86
2020/12/22 03:40:20;;;;;;;9.63;7.13;;;0.80;99.90;-0.50;97183.00;;;;6187981;23;20691;-85
2020/12/22 03:42:47;;;;;;;9.20;6.40;;;0.70;99.90;-0.50;97183.00;;;;6186869;23;20412;-87
2020/12/22 03:45:16;;;;;;;11.60;7.13;;;0.70;99.90;-0.40;97175.00;;;;6187204;23;20752;-86
2020/12/22 03:47:45;;;;;;;8.67;7.53;;;1.20;99.90;-0.40;97176.00;;;;6186947;23;20894;-85
2020/12/22 03:50:19;;;;;;;8.63;6.73;;;0.80;99.90;-0.40;97179.00;;;;6187740;23;21001;-85
2020/12/22 03:52:47;;;;;;;11.27;8.23;;;2.40;99.90;-0.30;97181.00;;;;6187177;23;20396;-86
2020/12/22 03:55:15;;;;;;;13.43;7.87;;;0.90;99.90;-0.40;97181.00;;;;6187610;23;20764;-86
2020/12/22 03:57:43;;;;;;;11.53;7.43;;;0.80;99.90;-0.40;97174.00;;;;6187115;23;20420;-84
2020/12/22 04:00:14;;;;;;;9.33;7.13;;;0.90;99.90;-0.40;97172.00;;;;6187365;23;20452;-84
2020/12/22 04:02:41;;;;;;;8.43;6.40;;;0.80;99.90;-0.40;97168.00;;;;6187304;23;20396;-86
2020/12/22 04:05:10;;;;;;;9.03;6.50;;;1.00;99.90;-0.30;97172.00;;;;6187661;23;20401;-86
2020/12/22 04:07:38;;;;;;;8.53;6.63;;;0.90;99.90;-0.30;97160.00;;;;6185296;23;20413;-88
2020/12/22 04:10:07;;;;;;;9.90;6.50;;;0.90;99.90;-0.30;97164.00;;;;6187132;23;20437;-88
2020/12/22 04:12:36;;;;;;;8.93;6.83;;;0.90;99.90;-0.30;97150.00;;;;6187346;23;20393;-84
2020/12/22 04:15:04;;;;;;;10.30;6.73;;;0.90;99.90;-0.30;97163.00;;;;6186964;23;20416;-86
2020/12/22 04:17:32;;;;;;;9.80;7.40;;;0.70;99.90;-0.30;97147.00;;;;6187086;23;20806;-85
2020/12/22 04:20:00;;;;;;;8.93;6.67;;;0.90;99.90;-0.20;97151.00;;;;6187803;23;20927;-85
2020/12/22 04:22:28;;;;;;;10.53;7.70;;;1.30;99.90;-0.20;97155.00;;;;6187514;23;20405;-84
2020/12/22 04:24:56;;;;;;;9.73;7.57;;;1.10;99.90;-0.30;97142.00;;;;6187035;23;20494;-86
2020/12/22 04:27:23;;;;;;;11.93;8.40;;;1.20;99.90;-0.40;97146.00;;;;6185436;23;20389;-86
2020/12/22 04:29:51;;;;;;;10.73;7.73;;;1.00;99.90;-0.30;97126.00;;;;6184871;23;20428;-84
2020/12/22 04:32:18;;;;;;;9.57;6.33;;;1.20;99.90;-0.30;97112.00;;;;6184810;23;20412;-84
2020/12/22 04:34:47;;;;;;;10.87;6.93;;;0.90;99.90;-0.30;97119.00;;;;6185756;23;20417;-85
2020/12/22 04:37:14;;;;;;;10.27;7.93;;;1.00;99.90;-0.20;97119.00;;;;6184349;23;20902;-85
2020/12/22 04:39:43;;;;;;;11.73;8.27;;;1.00;99.90;-0.20;97115.00;;;;6185060;23;20449;-85
2020/12/22 04:42:13;;;;;;;12.30;8.67;;;1.00;99.90;-0.20;97119.00;;;;6184716;23;20475;-86
2020/12/22 04:44:41;;;;;;;14.70;8.80;;;1.00;99.90;-0.10;97120.00;;;;6185218;23;20393;-84
2020/12/22 04:47:10;;;;;;;9.33;7.53;;;1.60;99.90;-0.20;97126.00;;;;6182427;23;20413;-85
2020/12/22 04:49:42;;;;;;;12.20;8.60;;;1.00;99.90;-0.20;97123.00;;;;6183790;23;20424;-86
2020/12/22 04:52:10;;;;;;;16.67;10.10;;;1.10;99.90;-0.20;97120.00;;;;6184182;23;20444;-86
2020/12/22 04:54:38;;;;;;;15.17;10.13;;;1.10;99.90;-0.10;97122.00;;;;6185601;23;20412;-85
2020/12/22 04:57:07;;;;;;;13.23;7.90;;;1.10;99.90;-0.20;97111.00;;;;6184219;23;20420;-85
2020/12/22 04:59:37;;;;;;;9.53;7.33;;;1.00;99.90;-0.30;97121.00;;;;6186591;23;20455;-85
2020/12/22 05:02:04;;;;;;;12.13;7.93;;;1.00;99.90;-0.30;97109.00;;;;6186214;23;20424;-86
2020/12/22 05:04:35;;;;;;;12.00;8.80;;;1.10;99.90;-0.40;97117.00;;;;6187241;23;20440;-86
2020/12/22 05:07:03;;;;;;;10.77;7.93;;;2.10;99.90;-0.40;97120.00;;;;6185804;23;20409;-86
2020/12/22 05:09:31;;;;;;;15.80;10.00;;;0.90;99.90;-0.40;97115.00;;;;6186158;23;20460;-86
2020/12/22 05:11:59;;;;;;;22.03;13.87;;;0.90;99.90;-0.30;97116.00;;;;6186449;23;20435;-85
2020/12/22 05:14:28;;;;;;;20.77;14.37;;;2.10;99.90;-0.30;97115.00;;;;6187240;23;20419;-85
2020/12/22 05:16:56;;;;;;;17.93;12.60;;;0.90;99.90;-0.20;97106.00;;;;6185817;23;20872;-87
2020/12/22 05:19:24;;;;;;;16.10;11.60;;;1.00;99.90;-0.20;97104.00;;;;6186569;23;20459;-85
2020/12/22 05:21:55;;;;;;;13.40;9.73;;;1.10;99.90;-0.30;97113.00;;;;6186812;23;20409;-85
2020/12/22 05:24:24;;;;;;;13.80;7.30;;;1.00;99.90;-0.40;97106.00;;;;6186691;23;20484;-85
2020/12/22 05:26:52;;;;;;;15.70;8.43;;;1.00;99.90;-0.40;97119.00;;;;6186055;23;20416;-87
2020/12/22 05:29:20;;;;;;;16.20;10.03;;;0.90;99.90;-0.30;97114.00;;;;6186363;23;20443;-86
2020/12/22 05:31:50;;;;;;;13.87;10.30;;;1.50;99.90;-0.30;97122.00;;;;6185697;23;20405;-85
2020/12/22 05:34:19;;;;;;;13.13;9.07;;;1.10;99.90;-0.40;97118.00;;;;6186562;23;20393;-85
2020/12/22 05:36:48;;;;;;;11.37;7.83;;;1.00;99.90;-0.40;97125.00;;;;6185409;23;20431;-85
2020/12/22 05:39:18;;;;;;;9.77;7.57;;;1.00;99.90;-0.40;97114.00;;;;6185828;23;20448;-85
2020/12/22 05:41:46;;;;;;;11.60;8.07;;;0.90;99.90;-0.30;97133.00;;;;6187309;23;20401;-84
2020/12/22 05:44:14;;;;;;;9.63;7.40;;;0.90;99.90;-0.40;97123.00;;;;6186169;23;20436;-84
2020/12/22 05:46:42;;;;;;;10.77;7.23;;;0.90;99.90;-0.40;97127.00;;;;6187057;23;20416;-85
2020/12/22 05:49:13;;;;;;;10.80;7.70;;;0.90;99.90;-0.30;97133.00;;;;6185820;23;20439;-84
2020/12/22 05:51:44;;;;;;;8.30;6.67;;;0.90;99.90;-0.30;97135.00;;;;6184227;23;20908;-85
2020/12/22 05:54:16;;;;;;;10.60;7.80;;;0.90;99.90;-0.30;97144.00;;;;6184018;23;20476;-85
2020/12/22 05:56:45;;;;;;;11.33;7.27;;;0.90;99.90;-0.30;97138.00;;;;6185343;23;20497;-85
2020/12/22 05:59:20;;;;;;;10.50;8.23;;;0.90;99.90;-0.30;97143.00;;;;6183005;23;20536;-85
2020/12/22 06:01:48;;;;;;;9.93;7.20;;;0.90;99.90;-0.30;97141.00;;;;6185151;23;20887;-85
2020/12/22 06:04:19;;;;;;;12.93;9.23;;;0.90;99.90;-0.20;97135.00;;;;6186037;23;20394;-85
2020/12/22 06:06:47;;;;;;;14.20;10.40;;;1.00;99.90;-0.20;97138.00;;;;6186395;23;20389;-85
2020/12/22 06:09:15;;;;;;;15.47;12.03;;;1.00;99.90;-0.20;97135.00;;;;6185467;23;20964;-84
2020/12/22 06:11:42;;;;;;;12.80;8.80;;;1.00;99.90;-0.20;97136.00;;;;6186179;23;20397;-85
2020/12/22 06:14:10;;;;;;;11.37;8.10;;;1.00;99.90;-0.20;97129.00;;;;6185835;23;20409;-85
2020/12/22 06:16:38;;;;;;;9.83;7.63;;;1.00;99.90;-0.20;97129.00;;;;6186736;23;20397;-84
2020/12/22 06:19:08;;;;;;;10.00;7.83;;;1.00;99.90;-0.20;97129.00;;;;6185725;23;20453;-84
2020/12/22 06:21:37;;;;;;;9.70;7.17;;;1.00;99.90;-0.20;97126.00;;;;6186293;23;20408;-86
2020/12/22 06:24:05;;;;;;;9.40;7.70;;;1.10;99.90;-0.20;97138.00;;;;6186424;23;20428;-83
2020/12/22 06:26:32;;;;;;;8.93;7.07;;;1.00;99.90;-0.20;97136.00;;;;6187060;23;20407;-84
2020/12/22 06:29:00;;;;;;;11.47;7.87;;;1.00;99.90;-0.20;97136.00;;;;6185827;23;20433;-86
2020/12/22 06:31:34;;;;;;;8.63;7.50;;;1.00;99.90;-0.20;97134.00;;;;6186816;23;20405;-85
2020/12/22 06:34:01;;;;;;;10.20;6.63;;;1.30;99.90;-0.20;97140.00;;;;6186735;23;20397;-84
2020/12/22 06:36:28;;;;;;;13.20;7.07;;;1.00;99.90;-0.20;97140.00;;;;6186278;23;20609;-84
2020/12/22 06:38:58;;;;;;;10.53;8.07;;;1.00;99.90;-0.20;97149.00;;;;6185659;23;20444;-84
2020/12/22 06:41:54;;;;;;;9.53;7.17;;;1.00;99.90;-0.20;97148.00;;;;6186386;23;20484;-85
2020/12/22 06:44:27;;;;;;;10.83;7.83;;;1.00;99.90;-0.10;97148.00;;;;6185977;23;20406;-85
2020/12/22 06:46:56;;;;;;;13.03;7.87;;;1.10;99.90;-0.10;97144.00;;;;6185278;23;20407;-85
2020/12/22 06:49:52;;;;;;;8.73;6.70;;;1.10;99.90;-0.10;97124.00;;;;6185274;23;20437;-84
2020/12/22 06:52:36;;;;;;;12.83;7.93;;;1.10;99.90;-0.10;97136.00;;;;6183836;23;20408;-84
2020/12/22 06:55:06;;;;;;;10.20;7.47;;;1.10;99.90;0.00;97140.00;;;;6184498;23;20887;-86
2020/12/22 06:57:44;;;;;;;12.33;8.77;;;1.10;99.90;0.10;97139.00;;;;6183866;23;20760;-86
2020/12/22 07:00:27;;;;;;;8.57;7.00;;;0.80;99.90;-0.10;97153.00;;;;6184897;23;20468;-83
2020/12/22 07:03:11;;;;;;;7.93;6.23;;;1.20;99.90;0.00;97159.00;;;;6184454;23;20397;-85
2020/12/22 07:05:42;;;;;;;9.97;6.63;;;1.20;99.90;0.00;97153.00;;;;6184896;23;20400;-84
2020/12/22 07:08:12;;;;;;;9.37;6.50;;;1.20;99.90;0.00;97162.00;;;;6184730;23;20384;-84
2020/12/22 07:10:43;;;;;;;12.67;7.33;;;1.20;99.90;0.00;97158.00;;;;6184855;23;20880;-84
2020/12/22 07:13:13;;;;;;;9.93;6.17;;;1.20;99.90;0.00;97155.00;;;;6186107;23;20400;-87
2020/12/22 07:15:46;;;;;;;9.97;6.70;;;1.20;99.90;0.00;97167.00;;;;6185713;23;20396;-85
2020/12/22 07:18:18;;;;;;;11.23;6.80;;;1.20;99.90;0.00;97167.00;;;;6184677;23;20852;-85
2020/12/22 07:20:49;;;;;;;8.80;6.40;;;1.20;99.90;0.00;97162.00;;;;6185186;23;21013;-86
2020/12/22 07:23:17;;;;;;;8.57;7.03;;;1.20;99.90;0.00;97171.00;;;;6185212;23;20385;-86
2020/12/22 07:25:45;;;;;;;13.13;8.43;;;1.20;99.90;0.10;97177.00;;;;6185400;23;20409;-85
2020/12/22 07:28:16;;;;;;;13.77;7.17;;;1.20;99.90;0.10;97164.00;;;;6185538;23;20880;-86
2020/12/22 07:30:43;;;;;;;10.33;6.97;;;1.30;99.90;0.10;97168.00;;;;6185873;23;20431;-86
2020/12/22 07:33:11;;;;;;;7.23;6.37;;;1.30;99.90;0.20;97169.00;;;;6184736;23;20385;-86
2020/12/22 07:35:39;;;;;;;9.10;6.30;;;2.50;99.90;0.20;97182.00;;;;6185312;23;20416;-85
2020/12/22 07:38:08;;;;;;;10.93;7.30;;;1.40;99.90;0.30;97177.00;;;;6185066;23;20417;-85
2020/12/22 07:40:38;;;;;;;14.23;7.20;;;1.40;99.90;0.30;97169.00;;;;6185493;23;20958;-85
2020/12/22 07:43:09;;;;;;;11.13;6.93;;;1.40;99.90;0.40;97174.00;;;;6184655;23;20424;-85
2020/12/22 07:45:47;;;;;;;9.60;7.13;;;1.50;99.90;0.30;97168.00;;;;6184547;23;20393;-85
2020/12/22 07:48:14;;;;;;;11.50;6.93;;;1.50;99.90;0.30;97165.00;;;;6184418;23;20396;-85
2020/12/22 07:50:42;;;;;;;9.60;7.27;;;1.50;99.90;0.20;97159.00;;;;6185405;23;20740;-85
2020/12/22 07:53:09;;;;;;;10.30;5.90;;;2.00;99.90;0.10;97163.00;;;;6184455;23;20412;-85
2020/12/22 07:55:38;;;;;;;9.93;6.17;;;1.40;99.90;0.20;97164.00;;;;6184217;23;21009;-85
2020/12/22 07:58:07;;;;;;;10.13;6.07;;;1.40;99.90;0.30;97160.00;;;;6183791;23;20420;-85
2020/12/22 08:00:36;;;;;;;8.77;6.17;;;1.50;99.90;0.40;97178.00;;;;6185833;23;20445;-84
2020/12/22 08:03:15;;;;;;;13.00;8.33;;;1.50;99.90;0.40;97168.00;;;;6185287;23;20413;-84
2020/12/22 08:05:58;;;;;;;6.57;5.20;;;1.50;99.90;0.50;97178.00;;;;6185413;23;20410;-85
2020/12/22 08:08:25;;;;;;;7.90;6.40;;;1.60;99.90;0.50;97177.00;;;;6184551;23;20396;-84
2020/12/22 08:10:53;;;;;;;7.37;6.43;;;1.60;99.90;0.70;97166.00;;;;6184922;23;20408;-84
2020/12/22 08:13:27;;;;;;;7.47;6.07;;;2.00;99.90;0.70;97170.00;;;;6185544;23;20424;-84
2020/12/22 08:15:55;;;;;;;7.83;5.80;;;1.80;99.90;0.70;97170.00;;;;6185845;23;20393;-85
2020/12/22 08:18:25;;;;;;;7.97;6.33;;;1.80;99.90;0.80;97165.00;;;;6183854;23;20412;-84
2020/12/22 08:20:56;;;;;;;10.40;6.77;;;1.90;99.90;0.80;97151.00;;;;6184216;23;20436;-84
2020/12/22 08:23:24;;;;;;;13.83;7.07;;;1.90;99.90;1.00;97151.00;;;;6185194;23;20393;-86
2020/12/22 08:25:53;;;;;;;12.67;6.90;;;2.00;99.90;1.00;97160.00;;;;6184484;23;20899;-84
2020/12/22 08:28:26;;;;;;;14.37;7.63;;;2.10;99.90;1.00;97152.00;;;;6185809;23;20389;-83
2020/12/22 08:30:54;;;;;;;16.17;8.50;;;2.60;99.90;1.00;97150.00;;;;6187585;23;20412;-84
2020/12/22 08:33:22;;;;;;;15.27;9.93;;;2.10;99.90;0.90;97154.00;;;;6186886;23;20435;-84
2020/12/22 08:35:51;;;;;;;14.53;7.80;;;2.60;99.90;1.00;97140.00;;;;6185824;23;20436;-84
2020/12/22 08:38:22;;;;;;;14.37;9.03;;;2.30;99.90;1.10;97132.00;;;;6186285;23;20451;-84
2020/12/22 08:40:52;;;;;;;9.20;7.30;;;2.50;99.90;1.10;97130.00;;;;6187249;23;20449;-84
2020/12/22 08:43:23;;;;;;;10.00;6.33;;;2.70;99.90;1.20;97138.00;;;;6186719;23;20764;-85
2020/12/22 08:45:52;;;;;;;8.70;6.37;;;2.30;99.90;1.30;97141.00;;;;6185435;23;20399;-85
2020/12/22 08:48:19;;;;;;;11.97;7.60;;;2.30;99.90;1.40;97151.00;;;;6186488;23;20409;-84
2020/12/22 08:50:49;;;;;;;8.33;5.70;;;2.70;99.90;1.30;97153.00;;;;6187296;23;20903;-85
2020/12/22 08:53:27;;;;;;;5.70;4.87;;;2.40;99.90;1.10;97174.00;;;;6186515;23;20876;-84
2020/12/22 08:56:06;;;;;;;7.40;5.10;;;2.60;99.90;1.30;97171.00;;;;6186101;23;20424;-85
2020/12/22 08:58:34;;;;;;;8.70;5.73;;;2.40;99.90;1.40;97170.00;;;;6185839;23;20443;-84
2020/12/22 09:01:23;;;;;;;5.90;5.23;;;2.90;99.90;1.40;97179.00;;;;6186240;23;20947;-84
2020/12/22 09:03:53;;;;;;;9.13;6.33;;;2.50;99.90;1.50;97182.00;;;;6187449;23;20389;-85
2020/12/22 09:06:40;;;;;;;7.73;6.73;;;2.70;99.90;1.60;97179.00;;;;6187102;23;20404;-84
2020/12/22 09:09:12;;;;;;;10.70;7.00;;;2.60;99.90;1.70;97175.00;;;;6185720;23;20462;-84
2020/12/22 09:11:40;;;;;;;9.90;6.60;;;2.70;99.90;2.30;97198.00;;;;6190222;23;20395;-82
2020/12/22 09:14:10;;;;;;;10.03;6.23;;;2.80;99.90;2.40;97192.00;;;;6190317;23;20427;-82
2020/12/22 09:16:55;;;;;;;8.47;6.40;;;3.10;99.90;2.50;97185.00;;;;6189975;23;20389;-83
2020/12/22 09:19:29;;;;;;;8.87;5.70;;;3.20;99.90;2.70;97194.00;;;;6189464;23;20448;-82
2020/12/22 09:22:01;;;;;;;9.53;7.03;;;3.50;99.90;2.40;97190.00;;;;6189773;23;20396;-82
2020/12/22 09:24:31;;;;;;;9.00;6.43;;;3.50;99.90;2.70;97177.00;;;;6189193;23;20158;-85
2020/12/22 09:27:01;;;;;;;10.83;7.90;;;3.50;99.90;2.40;97187.00;;;;6186124;23;20185;-87
2020/12/22 09:29:30;;;;;;;10.10;7.57;;;3.70;99.90;2.20;97181.00;;;;6186448;23;20672;-85
2020/12/22 09:32:00;;;;;;;10.93;7.37;;;3.50;99.90;2.00;97184.00;;;;6186338;23;20420;-86
2020/12/22 09:34:31;;;;;;;8.47;6.40;;;3.40;99.90;1.90;97190.00;;;;6186270;23;20418;-86
2020/12/22 09:37:01;;;;;;;8.30;5.53;;;3.30;99.90;1.80;97178.00;;;;6186187;23;20162;-85
2020/12/22 09:39:30;;;;;;;7.47;5.47;;;3.20;99.90;1.80;97180.00;;;;6186325;23;20786;-85
2020/12/22 09:41:58;;;;;;;8.90;5.67;;;3.10;99.90;2.00;97159.00;;;;6186167;23;20404;-85
2020/12/22 09:44:25;;;;;;;7.20;6.00;;;3.70;99.90;2.00;97164.00;;;;6187190;23;20919;-85
2020/12/22 09:46:55;;;;;;;11.60;6.30;;;3.20;99.90;1.90;97175.00;;;;6186106;23;20408;-85
2020/12/22 09:49:25;;;;;;;8.60;6.87;;;3.20;99.90;1.90;97155.00;;;;6187161;23;20455;-85
2020/12/22 09:51:54;;;;;;;9.60;6.50;;;3.00;99.90;2.10;97169.00;;;;6185412;23;20389;-84
2020/12/22 09:54:22;;;;;;;11.53;7.20;;;3.10;99.90;2.30;97176.00;;;;6186657;23;20393;-87
2020/12/22 09:56:50;;;;;;;10.27;7.90;;;3.20;99.90;2.50;97169.00;;;;6185600;23;20918;-88
2020/12/22 09:59:19;;;;;;;11.03;6.60;;;3.30;99.90;2.40;97167.00;;;;6186073;23;20520;-85
2020/12/22 10:01:48;;;;;;;11.73;7.23;;;3.40;99.90;2.60;97153.00;;;;6185525;23;20432;-85
2020/12/22 10:04:16;;;;;;;9.93;7.00;;;3.50;99.90;2.70;97151.00;;;;6186753;23;20390;-85
2020/12/22 10:06:44;;;;;;;7.83;6.07;;;3.60;99.90;2.60;97149.00;;;;6186060;23;20416;-84
2020/12/22 10:09:13;;;;;;;11.63;6.70;;;3.70;99.90;2.70;97139.00;;;;6185772;23;20786;-85
2020/12/22 10:11:41;;;;;;;10.80;5.97;;;3.70;99.90;2.80;97125.00;;;;6184012;23;20728;-84
2020/12/22 10:14:08;;;;;;;8.30;6.97;;;3.80;99.90;3.00;97134.00;;;;6184347;23;20184;-84
2020/12/22 10:16:35;;;;;;;10.20;6.43;;;3.90;99.90;3.00;97137.00;;;;6186006;23;20608;-84
2020/12/22 10:19:05;;;;;;;9.00;5.33;;;4.00;99.90;3.00;97130.00;;;;6185212;23;20205;-84
2020/12/22 10:21:32;;;;;;;9.53;6.63;;;4.00;99.90;3.40;97141.00;;;;6186217;23;20185;-84
2020/12/22 10:24:04;;;;;;;11.93;6.83;;;4.20;99.90;3.70;97139.00;;;;6186201;23;20415;-84
2020/12/22 10:26:32;;;;;;;10.70;7.60;;;4.60;99.90;4.00;97128.00;;;;6186842;23;20169;-84
2020/12/22 10:28:59;;;;;;;12.53;7.10;;;4.90;99.90;4.50;97127.00;;;;6186165;23;20216;-84
2020/12/22 10:31:28;;;;;;;10.50;8.17;;;5.20;99.90;5.10;97129.00;;;;6186532;23;20173;-85
2020/12/22 10:33:57;;;;;;;10.63;7.43;;;5.70;99.90;5.30;97135.00;;;;6186671;23;20520;-85
2020/12/22 10:36:26;;;;;;;9.80;7.87;;;6.20;99.90;5.90;97130.00;;;;6186882;23;20173;-86
2020/12/22 10:38:55;;;;;;;9.93;7.33;;;6.50;99.90;6.00;97120.00;;;;6185769;23;20221;-85
2020/12/22 10:41:24;;;;;;;8.67;6.63;;;6.80;99.90;5.90;97113.00;;;;6186303;23;20185;-84
2020/12/22 10:43:52;;;;;;;10.93;7.93;;;7.00;99.90;6.30;97121.00;;;;6186514;23;20182;-84
2020/12/22 10:46:20;;;;;;;14.37;7.80;;;7.30;99.90;6.60;97133.00;;;;6186252;23;20182;-84
2020/12/22 10:48:49;;;;;;;9.67;6.87;;;7.60;99.90;6.80;97125.00;;;;6185756;23;20763;-86
2020/12/22 10:51:16;;;;;;;10.37;6.53;;;7.80;99.90;7.00;97125.00;;;;6184019;23;20189;-83
2020/12/22 10:53:44;;;;;;;7.97;5.97;;;8.10;99.90;6.00;97114.00;;;;6186271;23;20172;-83
2020/12/22 10:56:13;;;;;;;11.20;7.33;;;7.80;99.90;6.00;97111.00;;;;6186447;23;20515;-87
2020/12/22 10:58:42;;;;;;;6.87;5.87;;;7.50;99.90;5.80;97106.00;;;;6184847;23;20216;-84
2020/12/22 11:01:13;;;;;;;8.20;6.40;;;7.40;99.90;5.40;97104.00;;;;6186325;23;20209;-84
2020/12/22 11:03:41;;;;;;;8.37;6.50;;;7.10;99.90;5.10;97095.00;;;;6186480;23;20169;-84
2020/12/22 11:06:20;;;;;;;11.87;7.03;;;6.80;99.90;5.50;97109.00;;;;6189047;23;20394;-87